• Join FlightAware (Why Join?)
  • Login
  • US Flag 
05:29AM EST


 

Airport Tracker/Info


-or-


 

Live Flight TrackerFlight Track Log ✈ AWI3704 ✈ 20-Jul-2013 ✈ KALB - KPHL

Flight Track Log - Related Links

Times and Time Zones

All times are in EDT time to prevent confusion due to time zone crossing. See the AWI3704 flight status page for this flight to view local times or setup timezone preferences in your user account.

Time Position Orientation Groundspeed Altitude Reporting Facility
EDT Latitude Longitude Course Direction KTS MPH feet Rate Location/Type
11:38AM 42.6925 -73.8017 223° Southwest 188 216 2,000  Level Boston Center
11:38AM 42.6550 -73.7953 173° South 217 250 3,500 2,400 Climbing Boston Center
11:39AM 42.7334 -74.1641 270° West  Level FlightAware Approximate
11:39AM 42.6269 -73.8650 241° Southwest 218 251 6,000  Level Boston Center
11:40AM 42.7333 -74.2855 270° West  Level FlightAware Approximate
11:40AM 42.5989 -73.9406 243° Southwest 218 251 7,700  Level Boston Center
11:41AM 42.6790 -74.3758 220° Southwest  Level FlightAware Approximate
11:41AM 42.5644 -74.0217 240° Southwest 242 278 10,300  Level Boston Center
11:42AM 42.6103 -74.4530 220° Southwest  Level FlightAware Approximate
11:42AM 42.5319 -74.1025 241° Southwest 260 299 12,100  Level Boston Center
11:43AM 42.5435 -74.5331 223° Southwest  Level FlightAware Approximate
11:43AM 42.4889 -74.2056 240° Southwest 281 323 13,300  Level Boston Center
11:44AM 42.4497 -74.3000 241° Southwest 306 352 14,900 1,380 Climbing Boston Center
11:45AM 42.4019 -74.4167 241° Southwest 312 359 16,100 600 Climbing Boston Center
11:46AM 42.3561 -74.5275 241° Southwest 331 381 16,100  Level Boston Center
11:48AM 42.2714 -74.7336 241° Southwest 331 381 16,100  Level New York Center
11:49AM 42.2286 -74.8344 240° Southwest 319 367 16,100  Level New York Center
11:50AM 42.1875 -74.9356 241° Southwest 313 360 16,100  Level New York Center
11:51AM 42.1183 -75.0094 218° Southwest 313 360 16,100  Level New York Center
11:52AM 42.0433 -75.0717 212° Southwest 318 366 16,100  Level New York Center
11:53AM 41.9658 -75.1361 212° Southwest 323 372 16,100  Level New York Center
11:54AM 41.8972 -75.1903 210° Southwest 328 377 16,100 -360 Level New York Center
11:55AM 41.8222 -75.2519 212° Southwest 328 377 15,400 -1,200 Descending New York Center
11:56AM 41.7383 -75.3186 211° Southwest 328 377 13,800 -1,500 Descending New York Center
11:57AM 41.6653 -75.3775 211° Southwest 323 372 12,400 -900 Descending New York Center
11:58AM 41.5922 -75.4364 211° Southwest 323 372 12,100 -180 Descending New York Center
11:59AM 41.5256 -75.4897 211° Southwest 323 372 12,100  Level New York Center
12:00PM 41.4525 -75.5483 211° Southwest 317 365 12,100 -60 Level New York Center
12:01PM 41.3708 -75.6117 210° Southwest 317 365 12,000 -60 Descending New York Center
12:02PM 41.3019 -75.6647 210° Southwest 317 365 12,000  Level New York Center
12:03PM 41.2114 -75.6883 191° South 312 359 12,000  Level New York Center
12:04PM 41.1239 -75.6875 180° South 317 365 12,000  Level New York Center
12:05PM 41.0425 -75.6872 180° South 322 371 12,000  Level New York Center
12:06PM 40.9544 -75.6561 165° South 328 377 12,000 -300 Level New York Center
12:07PM 40.8561 -75.6106 161° South 339 390 11,500 -780 Descending New York Center
12:08PM 40.7703 -75.5744 162° South 339 390 10,500 -780 Descending New York Center
12:09PM 40.6842 -75.5356 161° South 334 384 10,000 -300 Descending New York Center
12:10PM 40.6022 -75.4997 162° South 324 373 10,000  Level New York Center
12:11PM 40.5225 -75.4642 161° South 313 360 10,000  Level New York Center
12:12PM 40.4425 -75.4289 161° South 308 354 10,000 -420 Level New York Center
12:13PM 40.3631 -75.3825 156° South 303 349 9,200 -1,200 Descending New York Center
12:14PM 40.2958 -75.3428 156° South 303 349 7,700 -1,140 Descending New York Center
12:15PM 40.2247 -75.3000 155° Southeast 303 349 7,000 -660 Descending New York Center
12:16PM 40.1456 -75.2431 151° Southeast 298 343 6,400 -900 Descending New York Center
12:17PM 40.1167 -75.2000 131° Southeast 288 331 5,600 -1,440 Descending Philadelphia TRACON
12:18PM 40.0667 -75.1167 128° Southeast 283 326 4,100 -1,500 Descending Philadelphia TRACON